createdAt,value
2022-10-09T00:00:41.996Z,27.6
2022-10-09T00:01:44.194Z,27.7
2022-10-09T00:02:47.059Z,27.5
2022-10-09T00:03:51.486Z,27.7
2022-10-09T00:04:54.001Z,27.7
2022-10-09T00:05:56.178Z,27.5
2022-10-09T00:06:58.361Z,27.9
2022-10-09T00:08:00.569Z,27.8
2022-10-09T00:09:02.770Z,27.9
2022-10-09T00:10:05.247Z,27.7
2022-10-09T00:11:07.445Z,27.6
2022-10-09T00:12:09.922Z,28
2022-10-09T00:13:12.094Z,27.7
2022-10-09T00:14:14.587Z,27.5
2022-10-09T00:15:16.506Z,27.8
2022-10-09T00:16:19.057Z,27.8
2022-10-09T00:17:21.303Z,27.5
2022-10-09T00:18:23.774Z,27.5
2022-10-09T00:19:26.270Z,27.4
2022-10-09T00:20:28.742Z,27.5
2022-10-09T00:21:30.926Z,27.5
2022-10-09T00:22:33.125Z,27.6
2022-10-09T00:23:35.612Z,27.7
2022-10-09T00:24:38.076Z,27.8
2022-10-09T00:25:40.245Z,27.6
2022-10-09T00:26:42.721Z,27.7
2022-10-09T00:27:45.191Z,27.7
2022-10-09T00:28:47.493Z,27.6
2022-10-09T00:29:50.169Z,27.8
2022-10-09T00:30:52.435Z,27.5
2022-10-09T00:31:55.355Z,27.9
2022-10-09T00:32:57.554Z,27.6
2022-10-09T00:33:59.477Z,27.7
2022-10-09T00:35:01.399Z,27.7
2022-10-09T00:36:03.598Z,27.9
2022-10-09T00:37:05.831Z,27.5
2022-10-09T00:38:08.316Z,27.5
2022-10-09T00:39:10.216Z,27.7
2022-10-09T00:40:12.684Z,27.9
2022-10-09T00:41:14.882Z,27.6
2022-10-09T00:42:17.087Z,27.5
2022-10-09T00:43:19.553Z,27.9
2022-10-09T00:44:22.040Z,27.9
2022-10-09T00:45:24.525Z,27.8
2022-10-09T00:46:27.058Z,27.6
2022-10-09T00:47:30.043Z,27.8
2022-10-09T00:48:32.513Z,27.7
2022-10-09T00:49:34.994Z,27.6
2022-10-09T00:50:37.493Z,27.7
2022-10-09T00:51:39.954Z,27.6
2022-10-09T00:52:42.435Z,27.8
2022-10-09T00:53:44.624Z,27.8
2022-10-09T00:54:47.101Z,27.9
2022-10-09T00:55:49.292Z,27.8
2022-10-09T00:56:51.762Z,28
2022-10-09T00:57:54.233Z,27.8
2022-10-09T00:58:56.710Z,28.1
2022-10-09T00:59:59.190Z,27.6
2022-10-09T01:01:01.433Z,27.8
2022-10-09T01:02:04.231Z,27.7
2022-10-09T01:03:07.105Z,27.8
2022-10-09T01:04:09.023Z,27.8
2022-10-09T01:05:11.495Z,28
2022-10-09T01:06:13.707Z,27.6
2022-10-09T01:07:16.175Z,27.8
2022-10-09T01:08:18.367Z,27.9
2022-10-09T01:09:20.547Z,27.5
2022-10-09T01:10:23.009Z,27.4
2022-10-09T01:11:25.215Z,27.7
2022-10-09T01:12:27.690Z,27.6
2022-10-09T01:13:30.160Z,27.6
2022-10-09T01:14:32.620Z,28
2022-10-09T01:15:34.263Z,27.7
2022-10-09T01:16:36.880Z,27.7
2022-10-09T01:17:39.355Z,27.8
2022-10-09T01:18:41.881Z,27.8
2022-10-09T01:19:44.352Z,27.7
2022-10-09T01:20:46.890Z,27.7
2022-10-09T01:21:48.832Z,27.5
2022-10-09T01:22:51.541Z,27.8
2022-10-09T01:23:53.631Z,27.7
2022-10-09T01:24:56.110Z,27.8
2022-10-09T01:25:58.319Z,27.9
2022-10-09T01:27:00.519Z,27.8
2022-10-09T01:28:03.005Z,27.6
2022-10-09T01:29:05.800Z,27.9
2022-10-09T01:30:07.990Z,27.6
2022-10-09T01:31:09.963Z,27.6
2022-10-09T01:32:12.218Z,28.1
2022-10-09T01:33:14.410Z,27.8
2022-10-09T01:34:16.952Z,27.8
2022-10-09T01:35:18.585Z,28
2022-10-09T01:36:21.058Z,27.8
2022-10-09T01:37:23.557Z,27.9
2022-10-09T01:38:26.041Z,28.2
2022-10-09T01:39:28.216Z,27.7
2022-10-09T01:40:30.393Z,27.9
2022-10-09T01:41:32.866Z,27.9
2022-10-09T01:42:35.072Z,27.5
2022-10-09T01:43:37.286Z,27.9
2022-10-09T01:44:39.205Z,27.9
2022-10-09T01:45:41.867Z,28
2022-10-09T01:46:43.797Z,27.9
2022-10-09T01:47:46.024Z,27.8
2022-10-09T01:48:47.945Z,27.6
2022-10-09T01:49:51.179Z,27.7
2022-10-09T01:50:53.365Z,28.1
2022-10-09T01:51:55.283Z,27.6
2022-10-09T01:52:57.765Z,27.8
2022-10-09T01:53:59.952Z,27.9
2022-10-09T01:55:02.159Z,27.9
2022-10-09T01:56:04.358Z,27.8
2022-10-09T01:57:06.558Z,28
2022-10-09T01:58:08.759Z,27.9
2022-10-09T01:59:14.909Z,27.6
2022-10-09T02:00:15.947Z,28.1
2022-10-09T02:01:18.467Z,27.8
2022-10-09T02:02:21.185Z,27.7
2022-10-09T02:03:24.294Z,28
2022-10-09T02:04:26.515Z,28
2022-10-09T02:05:29.029Z,28
2022-10-09T02:06:31.224Z,27.8
2022-10-09T02:07:33.144Z,27.6
2022-10-09T02:08:36.088Z,27.6
2022-10-09T02:09:38.569Z,27.8
2022-10-09T02:10:40.785Z,27.7
2022-10-09T02:11:43.262Z,28
2022-10-09T02:12:45.511Z,27.8
2022-10-09T02:13:49.504Z,27.7
2022-10-09T02:14:51.976Z,27.9
2022-10-09T02:15:54.510Z,27.8
2022-10-09T02:16:57.356Z,27.8
2022-10-09T02:17:59.548Z,27.7
2022-10-09T02:19:01.504Z,27.8
2022-10-09T02:20:03.701Z,28
2022-10-09T02:21:05.975Z,27.7
2022-10-09T02:22:08.150Z,27.9
2022-10-09T02:23:09.782Z,27.8
2022-10-09T02:24:11.732Z,27.7
2022-10-09T02:25:13.921Z,28
2022-10-09T02:26:16.395Z,27.7
2022-10-09T02:27:18.597Z,27.9
2022-10-09T02:28:20.798Z,28.1
2022-10-09T02:29:23.130Z,27.7
2022-10-09T02:30:25.325Z,28
2022-10-09T02:31:27.868Z,27.8
2022-10-09T02:32:30.580Z,28
2022-10-09T02:33:32.501Z,27.7
2022-10-09T02:34:34.994Z,27.9
2022-10-09T02:35:37.470Z,28.2
2022-10-09T02:36:40.207Z,27.8
2022-10-09T02:37:42.408Z,27.7
2022-10-09T02:38:44.605Z,27.8
2022-10-09T02:39:47.097Z,27.8
2022-10-09T02:40:49.582Z,27.9
2022-10-09T02:41:51.791Z,27.7
2022-10-09T02:42:54.258Z,27.8
2022-10-09T02:43:56.460Z,28.1
2022-10-09T02:44:58.965Z,28.3
2022-10-09T02:46:01.183Z,27.9
2022-10-09T02:47:03.394Z,27.6
2022-10-09T02:48:05.290Z,27.8
2022-10-09T02:49:07.756Z,27.7
2022-10-09T02:50:10.248Z,28
2022-10-09T02:51:12.734Z,27.7
2022-10-09T02:52:14.972Z,27.8
2022-10-09T02:53:17.453Z,28
2022-10-09T02:54:19.626Z,27.8
2022-10-09T02:55:21.576Z,27.9
2022-10-09T02:56:24.044Z,27.6
2022-10-09T02:57:26.519Z,28.1
2022-10-09T02:58:28.708Z,27.8
2022-10-09T02:59:30.636Z,27.8
2022-10-09T03:00:32.577Z,27.8
2022-10-09T03:01:34.855Z,27.8
2022-10-09T03:02:37.437Z,27.9
2022-10-09T03:03:40.748Z,27.9
2022-10-09T03:04:42.658Z,28.1
2022-10-09T03:05:45.221Z,27.9
2022-10-09T03:06:47.412Z,27.8
2022-10-09T03:07:49.964Z,27.8
2022-10-09T03:08:51.896Z,27.9
2022-10-09T03:09:54.371Z,27.8
2022-10-09T03:10:56.585Z,27.8
2022-10-09T03:11:59.043Z,27.7
2022-10-09T03:13:01.513Z,27.6
2022-10-09T03:14:03.697Z,27.6
2022-10-09T03:15:05.907Z,27.8
2022-10-09T03:16:07.891Z,27.6
2022-10-09T03:17:09.861Z,27.7
2022-10-09T03:18:12.353Z,27.8
2022-10-09T03:19:13.979Z,27.5
2022-10-09T03:20:16.467Z,27.6
2022-10-09T03:21:18.671Z,27.4
2022-10-09T03:22:20.867Z,27.2
2022-10-09T03:23:23.392Z,27.5
2022-10-09T03:24:25.867Z,27.4
2022-10-09T03:25:28.062Z,27.2
2022-10-09T03:26:30.561Z,27.5
2022-10-09T03:27:33.017Z,27.4
2022-10-09T03:28:35.538Z,27.5
2022-10-09T03:29:38.417Z,27.3
2022-10-09T03:30:40.626Z,27.5
2022-10-09T03:31:58.406Z,27.4
2022-10-09T03:32:48.255Z,27.4
2022-10-09T03:33:52.202Z,27.6
2022-10-09T03:34:54.701Z,27.5
2022-10-09T03:35:57.166Z,27.5
2022-10-09T03:36:59.656Z,27.5
2022-10-09T03:38:01.858Z,27.3
2022-10-09T03:39:04.388Z,27.2
2022-10-09T03:40:06.858Z,27.5
2022-10-09T03:41:09.060Z,27.4
2022-10-09T03:42:11.571Z,27.1
2022-10-09T03:43:13.741Z,27.1
2022-10-09T03:44:15.940Z,27.4
2022-10-09T03:45:18.416Z,27.1
2022-10-09T03:46:21.005Z,27.4
2022-10-09T03:47:23.510Z,27.4
2022-10-09T03:48:25.979Z,27.3
2022-10-09T03:49:28.181Z,27.2
2022-10-09T03:50:30.371Z,27.4
2022-10-09T03:51:32.593Z,27.4
2022-10-09T03:52:34.780Z,27.2
2022-10-09T03:53:36.984Z,27.2
2022-10-09T03:54:39.520Z,27.5
2022-10-09T03:55:41.991Z,27.3
2022-10-09T03:56:44.462Z,27.1
2022-10-09T03:57:46.964Z,27.2
2022-10-09T03:58:49.425Z,27.3
2022-10-09T03:59:51.600Z,27.3
2022-10-09T04:00:53.951Z,27.4
2022-10-09T04:01:56.536Z,27.3
2022-10-09T04:02:58.497Z,27.3
2022-10-09T04:04:01.486Z,27.4
2022-10-09T04:05:03.675Z,27.4
2022-10-09T04:06:05.878Z,27.2
2022-10-09T04:07:08.055Z,27.4
2022-10-09T04:08:10.545Z,27.3
2022-10-09T04:09:12.719Z,27.2
2022-10-09T04:10:15.263Z,27.4
2022-10-09T04:11:17.179Z,27.2
2022-10-09T04:12:19.103Z,27.3
2022-10-09T04:13:21.613Z,27.5
2022-10-09T04:14:23.786Z,27.2
2022-10-09T04:15:26.245Z,27.3
2022-10-09T04:16:28.796Z,27.4
2022-10-09T04:17:31.491Z,27.2
2022-10-09T04:18:33.959Z,27.3
2022-10-09T04:19:35.859Z,27.4
2022-10-09T04:20:38.060Z,27.3
2022-10-09T04:21:40.536Z,27.4
2022-10-09T04:22:42.736Z,27.3
2022-10-09T04:23:44.952Z,27.2
2022-10-09T04:24:47.435Z,27.1
2022-10-09T04:25:49.976Z,27.3
2022-10-09T04:26:51.878Z,27.1
2022-10-09T04:27:54.357Z,27.3
2022-10-09T04:28:56.869Z,27.2
2022-10-09T04:29:59.052Z,27.4
2022-10-09T04:31:01.554Z,27.1
2022-10-09T04:32:04.031Z,27.1
2022-10-09T04:33:10.438Z,27.4
2022-10-09T04:34:11.489Z,27.3
2022-10-09T04:35:13.386Z,27.3
2022-10-09T04:36:15.868Z,27.4
2022-10-09T04:37:18.336Z,27.3
2022-10-09T04:38:20.527Z,27.3
2022-10-09T04:39:23.010Z,27.2
2022-10-09T04:40:25.478Z,27.3
2022-10-09T04:41:28.070Z,27.2
2022-10-09T04:42:29.990Z,27.4
2022-10-09T04:43:32.459Z,27.4
2022-10-09T04:44:34.954Z,27.3
2022-10-09T04:45:37.261Z,27.2
2022-10-09T04:46:39.893Z,27.2
2022-10-09T04:47:42.359Z,27.3
2022-10-09T04:48:44.562Z,27.3
2022-10-09T04:49:47.031Z,27.3
2022-10-09T04:50:49.232Z,27.3
2022-10-09T04:51:51.698Z,27.3
2022-10-09T04:52:53.898Z,27.1
2022-10-09T04:54:00.380Z,27.3
2022-10-09T04:55:01.356Z,27.1
2022-10-09T04:56:03.569Z,27.3
2022-10-09T04:57:05.841Z,27.1
2022-10-09T04:58:08.034Z,27
2022-10-09T04:59:10.506Z,27.1
2022-10-09T05:00:12.757Z,27.4
2022-10-09T05:01:14.964Z,27.1
2022-10-09T05:02:17.890Z,27.1
2022-10-09T05:03:20.779Z,27.1
2022-10-09T05:04:23.247Z,27.3
2022-10-09T05:05:25.447Z,27.1
2022-10-09T05:06:27.648Z,27.3
2022-10-09T05:07:30.131Z,27.2
2022-10-09T05:08:32.603Z,27.1
2022-10-09T05:09:34.815Z,27.1
2022-10-09T05:10:37.278Z,27.1
2022-10-09T05:11:42.606Z,27.3
2022-10-09T05:12:44.757Z,27.4
2022-10-09T05:13:48.079Z,27.2
2022-10-09T05:14:50.344Z,27.1
2022-10-09T05:15:52.838Z,27.3
2022-10-09T05:17:12.816Z,27.2
2022-10-09T05:18:00.296Z,27.2
2022-10-09T05:19:02.799Z,27.3
2022-10-09T05:20:05.280Z,27.3
2022-10-09T05:21:07.483Z,27.2
2022-10-09T05:22:09.406Z,27.2
2022-10-09T05:23:11.598Z,27.2
2022-10-09T05:24:13.798Z,27.2
2022-10-09T05:25:15.713Z,27.1
2022-10-09T05:26:18.182Z,27.2
2022-10-09T05:27:20.685Z,27.2
2022-10-09T05:28:23.178Z,27.3
2022-10-09T05:29:26.212Z,27.2
2022-10-09T05:30:28.408Z,27.2
2022-10-09T05:31:30.435Z,27.2
2022-10-09T05:32:32.864Z,27.1
2022-10-09T05:33:35.349Z,27.2
2022-10-09T05:34:37.826Z,27.2
2022-10-09T05:35:40.010Z,27.1
2022-10-09T05:36:42.195Z,27.1
2022-10-09T05:37:44.392Z,27.1
2022-10-09T05:38:46.870Z,27.2
2022-10-09T05:39:49.104Z,27.2
2022-10-09T05:40:51.582Z,27.1
2022-10-09T05:41:53.763Z,27.2
2022-10-09T05:42:56.269Z,27.1
2022-10-09T05:43:58.509Z,26.9
2022-10-09T05:45:01.050Z,27.1
2022-10-09T05:46:03.351Z,27.1
2022-10-09T05:47:05.631Z,27
2022-10-09T05:48:08.098Z,27.1
2022-10-09T05:49:10.304Z,27
2022-10-09T05:50:12.836Z,26.9
2022-10-09T05:51:14.742Z,27.1
2022-10-09T05:52:16.364Z,27
2022-10-09T05:53:18.860Z,27
2022-10-09T05:54:21.319Z,27.1
2022-10-09T05:55:23.539Z,27
2022-10-09T05:56:25.715Z,27
2022-10-09T05:57:27.648Z,27.1
2022-10-09T05:58:29.595Z,27
2022-10-09T05:59:31.224Z,27
2022-10-09T06:00:33.472Z,27
2022-10-09T06:01:36.050Z,27.1
2022-10-09T06:02:38.752Z,27
2022-10-09T06:03:41.523Z,27
2022-10-09T06:04:43.717Z,26.9
2022-10-09T06:05:46.179Z,27.1
2022-10-09T06:06:48.072Z,26.9
2022-10-09T06:07:50.629Z,27
2022-10-09T06:08:52.550Z,27.1
2022-10-09T06:09:55.035Z,27.1
2022-10-09T06:10:57.229Z,27
2022-10-09T06:11:59.433Z,27.2
2022-10-09T06:13:01.913Z,27.2
2022-10-09T06:14:04.110Z,27
2022-10-09T06:15:06.310Z,27
2022-10-09T06:16:08.611Z,27
2022-10-09T06:17:11.303Z,27
2022-10-09T06:18:13.535Z,27.1
2022-10-09T06:19:16.003Z,27
2022-10-09T06:20:18.719Z,27.1
2022-10-09T06:21:21.190Z,26.9
2022-10-09T06:22:23.384Z,27
2022-10-09T06:23:25.849Z,27.1
2022-10-09T06:24:29.276Z,27
2022-10-09T06:25:32.003Z,27
2022-10-09T06:26:34.477Z,27
2022-10-09T06:27:36.689Z,27.1
2022-10-09T06:28:38.617Z,26.9
2022-10-09T06:29:41.377Z,27.2
2022-10-09T06:30:43.894Z,27
2022-10-09T06:31:46.563Z,27
2022-10-09T06:32:49.228Z,27
2022-10-09T06:33:53.497Z,27
2022-10-09T06:34:55.694Z,27
2022-10-09T06:36:03.964Z,26.9
2022-10-09T06:37:02.354Z,27
2022-10-09T06:38:04.871Z,26.9
2022-10-09T06:39:07.365Z,26.9
2022-10-09T06:40:09.550Z,27
2022-10-09T06:41:10.912Z,27
2022-10-09T06:42:13.394Z,27
2022-10-09T06:43:15.866Z,27
2022-10-09T06:44:18.077Z,26.9
2022-10-09T06:45:20.022Z,27
2022-10-09T06:46:22.339Z,27.1
2022-10-09T06:47:25.124Z,26.9
2022-10-09T06:48:27.325Z,27.1
2022-10-09T06:49:29.551Z,27
2022-10-09T06:50:31.745Z,26.9
2022-10-09T06:51:34.232Z,26.9
2022-10-09T06:52:36.093Z,27
2022-10-09T06:53:38.471Z,26.9
2022-10-09T06:54:40.633Z,26.9
2022-10-09T06:55:42.854Z,26.9
2022-10-09T06:56:44.759Z,27.2
2022-10-09T06:57:47.249Z,26.9
2022-10-09T06:58:49.718Z,27.1
2022-10-09T06:59:51.924Z,27
2022-10-09T07:00:54.429Z,26.9
2022-10-09T07:01:56.420Z,26.9
2022-10-09T07:02:59.885Z,26.9
2022-10-09T07:04:02.651Z,26.9
2022-10-09T07:05:04.869Z,26.8
2022-10-09T07:06:06.820Z,26.8
2022-10-09T07:07:09.348Z,27
2022-10-09T07:08:11.828Z,26.9
2022-10-09T07:09:14.023Z,26.8
2022-10-09T07:10:16.229Z,26.9
2022-10-09T07:11:24.232Z,27
2022-10-09T07:12:26.724Z,26.9
2022-10-09T07:13:28.928Z,27
2022-10-09T07:14:30.859Z,27
2022-10-09T07:15:33.105Z,27
2022-10-09T07:16:35.773Z,27
2022-10-09T07:17:38.250Z,26.9
2022-10-09T07:18:40.528Z,27.2
2022-10-09T07:19:42.727Z,26.7
2022-10-09T07:20:44.923Z,27
2022-10-09T07:21:47.385Z,26.8
2022-10-09T07:22:49.919Z,27
2022-10-09T07:23:52.937Z,26.8
2022-10-09T07:24:55.126Z,27
2022-10-09T07:25:56.776Z,26.7
2022-10-09T07:26:59.244Z,26.8
2022-10-09T07:28:01.456Z,26.9
2022-10-09T07:29:04.353Z,27.1
2022-10-09T07:30:06.848Z,27
2022-10-09T07:31:09.087Z,26.9
2022-10-09T07:32:12.078Z,26.8
2022-10-09T07:33:14.004Z,26.8
2022-10-09T07:34:16.540Z,27
2022-10-09T07:35:18.726Z,27
2022-10-09T07:36:21.243Z,26.9
2022-10-09T07:37:23.706Z,27
2022-10-09T07:38:25.695Z,26.9
2022-10-09T07:39:27.884Z,26.9
2022-10-09T07:40:30.094Z,27
2022-10-09T07:41:32.576Z,27.1
2022-10-09T07:42:34.212Z,26.9
2022-10-09T07:43:36.128Z,26.8
2022-10-09T07:44:37.510Z,27
2022-10-09T07:45:39.994Z,26.8
2022-10-09T07:46:41.988Z,27
2022-10-09T07:47:44.820Z,27
2022-10-09T07:48:47.310Z,26.9
2022-10-09T07:49:49.854Z,26.9
2022-10-09T07:50:52.071Z,26.9
2022-10-09T07:51:54.570Z,26.9
2022-10-09T07:52:57.051Z,26.9
2022-10-09T07:53:59.252Z,26.9
2022-10-09T07:55:01.863Z,27
2022-10-09T07:56:04.342Z,27
2022-10-09T07:57:06.832Z,26.8
2022-10-09T07:58:09.303Z,27
2022-10-09T07:59:11.501Z,26.9
2022-10-09T08:00:14.000Z,26.8
2022-10-09T08:01:19.769Z,26.9
2022-10-09T08:02:20.986Z,26.8
2022-10-09T08:03:23.123Z,26.8
2022-10-09T08:04:25.597Z,27
2022-10-09T08:05:27.892Z,26.9
2022-10-09T08:06:30.375Z,26.8
2022-10-09T08:07:34.980Z,26.8
2022-10-09T08:08:37.716Z,27
2022-10-09T08:09:40.197Z,26.9
2022-10-09T08:10:42.672Z,26.8
2022-10-09T08:11:44.868Z,26.9
2022-10-09T08:12:47.420Z,26.9
2022-10-09T08:13:52.048Z,26.8
2022-10-09T08:14:54.512Z,26.9
2022-10-09T08:15:57.083Z,26.9
2022-10-09T08:16:59.913Z,26.9
2022-10-09T08:18:02.109Z,26.9
2022-10-09T08:19:04.302Z,26.8
2022-10-09T08:20:06.777Z,26.9
2022-10-09T08:21:09.034Z,26.8
2022-10-09T08:22:10.950Z,26.9
2022-10-09T08:23:13.451Z,26.8
2022-10-09T08:24:15.644Z,26.8
2022-10-09T08:25:17.542Z,26.9
2022-10-09T08:26:19.764Z,27
2022-10-09T08:27:22.247Z,26.9
2022-10-09T08:28:24.774Z,27
2022-10-09T08:29:27.697Z,26.8
2022-10-09T08:30:29.617Z,26.6
2022-10-09T08:31:31.342Z,26.8
2022-10-09T08:32:34.535Z,27
2022-10-09T08:33:37.032Z,26.9
2022-10-09T08:34:39.520Z,26.9
2022-10-09T08:35:41.445Z,27.1
2022-10-09T08:36:43.731Z,26.8
2022-10-09T08:37:45.920Z,26.8
2022-10-09T08:38:48.598Z,26.9
2022-10-09T08:39:50.664Z,27
2022-10-09T08:40:56.156Z,27
2022-10-09T08:41:57.841Z,26.8
2022-10-09T08:43:00.328Z,26.8
2022-10-09T08:44:02.804Z,26.8
2022-10-09T08:45:04.444Z,26.9
2022-10-09T08:46:06.696Z,26.9
2022-10-09T08:47:09.155Z,26.7
2022-10-09T08:48:11.629Z,26.7
2022-10-09T08:49:13.552Z,26.9
2022-10-09T08:50:16.042Z,26.8
2022-10-09T08:51:18.251Z,26.6
2022-10-09T08:52:20.775Z,26.8
2022-10-09T08:53:22.998Z,26.8
2022-10-09T08:54:25.495Z,26.8
2022-10-09T08:55:27.685Z,26.9
2022-10-09T08:56:29.880Z,26.8
2022-10-09T08:57:32.409Z,26.8
2022-10-09T08:58:34.636Z,26.7
2022-10-09T08:59:36.849Z,26.7
2022-10-09T09:00:39.066Z,26.9
2022-10-09T09:01:41.038Z,26.7
2022-10-09T09:02:43.330Z,26.8
2022-10-09T09:03:45.592Z,26.8
2022-10-09T09:04:50.071Z,27
2022-10-09T09:05:52.512Z,26.8
2022-10-09T09:06:55.003Z,26.9
2022-10-09T09:07:57.267Z,26.9
2022-10-09T09:08:59.461Z,26.9
2022-10-09T09:10:01.960Z,26.8
2022-10-09T09:11:04.440Z,26.9
2022-10-09T09:12:06.650Z,26.9
2022-10-09T09:13:08.904Z,26.8
2022-10-09T09:14:10.614Z,26.9
2022-10-09T09:15:12.806Z,27
2022-10-09T09:16:15.100Z,26.9
2022-10-09T09:17:17.909Z,26.8
2022-10-09T09:18:20.114Z,26.8
2022-10-09T09:19:22.596Z,27
2022-10-09T09:20:25.113Z,26.9
2022-10-09T09:21:27.334Z,26.9
2022-10-09T09:22:29.852Z,27.1
2022-10-09T09:23:32.405Z,26.9
2022-10-09T09:24:33.785Z,26.8
2022-10-09T09:25:36.287Z,26.7
2022-10-09T09:26:38.766Z,26.8
2022-10-09T09:27:40.694Z,27
2022-10-09T09:28:43.281Z,27.1
2022-10-09T09:29:46.313Z,27
2022-10-09T09:30:47.954Z,26.9
2022-10-09T09:31:50.084Z,26.9
2022-10-09T09:32:52.589Z,26.9
2022-10-09T09:33:54.815Z,26.9
2022-10-09T09:34:57.292Z,27
2022-10-09T09:35:59.500Z,26.8
2022-10-09T09:37:01.715Z,26.7
2022-10-09T09:38:03.904Z,27
2022-10-09T09:41:16.468Z,26.9
2022-10-09T09:42:18.952Z,27.1
2022-10-09T09:43:21.442Z,26.9
2022-10-09T09:44:23.651Z,26.7
2022-10-09T09:45:26.126Z,27
2022-10-09T09:46:28.187Z,26.9
2022-10-09T09:47:30.990Z,27
2022-10-09T09:48:33.480Z,27.1
2022-10-09T09:49:35.994Z,26.8
2022-10-09T09:51:04.912Z,26.9
2022-10-09T09:51:43.506Z,26.8
2022-10-09T09:52:45.716Z,26.9
2022-10-09T09:53:47.662Z,26.7
2022-10-09T09:54:49.652Z,26.9
2022-10-09T09:55:51.578Z,26.7
2022-10-09T09:57:11.465Z,26.9
2022-10-09T09:57:59.063Z,26.9
2022-10-09T09:59:01.289Z,26.9
2022-10-09T10:00:03.251Z,26.7
2022-10-09T10:01:05.529Z,26.8
2022-10-09T10:02:08.277Z,26.9
2022-10-09T10:03:11.078Z,26.9
2022-10-09T10:04:13.282Z,26.9
2022-10-09T10:05:15.811Z,26.9
2022-10-09T10:06:18.058Z,27
2022-10-09T10:07:20.276Z,26.9
2022-10-09T10:08:22.475Z,26.9
2022-10-09T10:09:24.718Z,26.8
2022-10-09T10:10:27.314Z,26.9
2022-10-09T10:11:28.977Z,26.8
2022-10-09T10:12:31.203Z,27
2022-10-09T10:13:33.402Z,26.8
2022-10-09T10:14:35.888Z,26.7
2022-10-09T10:15:38.357Z,26.7
2022-10-09T10:16:40.675Z,26.8
2022-10-09T10:17:42.609Z,26.8
2022-10-09T10:18:44.789Z,26.8
2022-10-09T10:19:47.252Z,27
2022-10-09T10:20:49.742Z,26.8
2022-10-09T10:21:52.208Z,27
2022-10-09T10:22:54.412Z,26.9
2022-10-09T10:23:56.672Z,26.8
2022-10-09T10:24:59.363Z,26.7
2022-10-09T10:26:01.888Z,26.9
2022-10-09T10:27:04.091Z,27
2022-10-09T10:28:06.369Z,26.9
2022-10-09T10:29:09.227Z,26.9
2022-10-09T10:30:11.430Z,26.8
2022-10-09T10:31:13.658Z,26.7
2022-10-09T10:32:16.324Z,27
2022-10-09T10:33:18.294Z,26.8
2022-10-09T10:34:20.481Z,26.8
2022-10-09T10:35:22.391Z,26.8
2022-10-09T10:36:24.861Z,26.9
2022-10-09T10:37:27.356Z,26.6
2022-10-09T10:38:29.824Z,26.8
2022-10-09T10:39:32.304Z,27
2022-10-09T10:40:34.229Z,26.8
2022-10-09T10:41:36.750Z,27.1
2022-10-09T10:42:38.954Z,26.7
2022-10-09T10:43:40.906Z,26.9
2022-10-09T10:44:43.364Z,26.9
2022-10-09T10:45:45.852Z,26.9
2022-10-09T10:46:48.068Z,27.1
2022-10-09T10:47:51.538Z,26.8
2022-10-09T10:48:54.823Z,26.9
2022-10-09T10:49:57.012Z,26.8
2022-10-09T10:50:58.941Z,26.9
2022-10-09T10:52:00.867Z,26.8
2022-10-09T10:53:03.048Z,26.8
2022-10-09T10:54:04.704Z,26.8
2022-10-09T10:55:06.891Z,26.8
2022-10-09T10:56:09.393Z,26.7
2022-10-09T10:57:12.066Z,26.9
2022-10-09T10:58:14.605Z,26.8
2022-10-09T10:59:17.125Z,26.9
2022-10-09T11:00:19.048Z,27
2022-10-09T11:01:21.332Z,26.8
2022-10-09T11:02:24.356Z,26.9
2022-10-09T11:03:26.884Z,26.7
2022-10-09T11:04:29.959Z,26.9
2022-10-09T11:05:31.899Z,27
2022-10-09T11:06:34.369Z,26.8
2022-10-09T11:07:36.842Z,26.8
2022-10-09T11:08:39.041Z,27
2022-10-09T11:09:41.529Z,26.9
2022-10-09T11:10:43.433Z,26.8
2022-10-09T11:11:45.634Z,26.9
2022-10-09T11:12:48.618Z,26.9
2022-10-09T11:13:50.911Z,27
2022-10-09T11:14:53.401Z,27
2022-10-09T11:15:55.629Z,26.8
2022-10-09T11:16:58.128Z,26.8
2022-10-09T11:18:00.328Z,26.9
2022-10-09T11:19:02.254Z,26.9
2022-10-09T11:20:04.474Z,26.8
2022-10-09T11:21:06.669Z,26.8
2022-10-09T11:22:08.607Z,27
2022-10-09T11:23:11.073Z,26.8
2022-10-09T11:24:13.551Z,26.8
2022-10-09T11:25:16.025Z,26.9
2022-10-09T11:26:18.530Z,26.9
2022-10-09T11:27:21.018Z,26.8
2022-10-09T11:28:23.608Z,27
2022-10-09T11:29:25.819Z,26.9
2022-10-09T11:30:28.342Z,26.7
2022-10-09T11:31:30.935Z,26.9
2022-10-09T11:32:33.552Z,26.8
2022-10-09T11:33:36.822Z,26.9
2022-10-09T11:34:39.056Z,26.9
2022-10-09T11:35:41.528Z,26.8
2022-10-09T11:36:44.024Z,27
2022-10-09T11:37:46.402Z,26.9
2022-10-09T11:38:50.761Z,27
2022-10-09T11:39:53.266Z,26.8
2022-10-09T11:40:55.743Z,26.9
2022-10-09T11:41:58.214Z,27.1
2022-10-09T11:43:00.714Z,26.8
2022-10-09T11:44:02.964Z,26.8
2022-10-09T11:45:04.888Z,27
2022-10-09T11:46:07.239Z,26.9
2022-10-09T11:47:10.064Z,26.9
2022-10-09T11:48:12.567Z,27
2022-10-09T11:49:15.057Z,26.9
2022-10-09T11:50:17.527Z,27
2022-10-09T11:51:20.024Z,26.9
2022-10-09T11:52:22.227Z,26.9
2022-10-09T11:53:24.127Z,26.8
2022-10-09T11:54:26.618Z,26.7
2022-10-09T11:55:28.815Z,26.7
2022-10-09T11:56:31.289Z,26.9
2022-10-09T11:57:33.770Z,26.8
2022-10-09T11:58:36.042Z,26.9
2022-10-09T11:59:38.579Z,26.8
2022-10-09T12:00:41.051Z,26.7
2022-10-09T12:01:43.324Z,26.7
2022-10-09T12:02:46.012Z,26.7
2022-10-09T12:03:48.848Z,26.9
2022-10-09T12:04:54.676Z,27
2022-10-09T12:05:56.034Z,26.8
2022-10-09T12:06:58.517Z,27
2022-10-09T12:08:00.989Z,26.8
2022-10-09T12:09:03.168Z,27
2022-10-09T12:10:05.667Z,26.9
2022-10-09T12:11:07.603Z,26.9
2022-10-09T12:12:10.076Z,27
2022-10-09T12:13:12.541Z,26.9
2022-10-09T12:14:18.277Z,26.7
2022-10-09T12:15:19.768Z,27.1
2022-10-09T12:16:21.911Z,26.9
2022-10-09T12:17:24.876Z,26.9
2022-10-09T12:18:27.127Z,26.9
2022-10-09T12:19:29.381Z,27
2022-10-09T12:20:31.893Z,27.1
2022-10-09T12:21:34.366Z,26.8
2022-10-09T12:22:36.580Z,27
2022-10-09T12:23:38.786Z,26.9
2022-10-09T12:24:40.991Z,27
2022-10-09T12:25:43.191Z,26.9
2022-10-09T12:26:45.677Z,26.8
2022-10-09T12:27:47.887Z,26.8
2022-10-09T12:28:50.470Z,27
2022-10-09T12:29:52.720Z,27
2022-10-09T12:30:55.240Z,26.8
2022-10-09T12:31:58.138Z,26.9
2022-10-09T12:33:00.662Z,26.8
2022-10-09T12:34:03.146Z,27
2022-10-09T12:35:05.050Z,26.9
2022-10-09T12:36:07.264Z,26.9
2022-10-09T12:37:09.458Z,26.9
2022-10-09T12:38:12.010Z,27
2022-10-09T12:39:14.200Z,27
2022-10-09T12:40:16.691Z,27.1
2022-10-09T12:41:20.341Z,26.9
2022-10-09T12:42:22.505Z,26.8
2022-10-09T12:43:25.127Z,27.1
2022-10-09T12:44:27.020Z,26.7
2022-10-09T12:45:28.964Z,27
2022-10-09T12:46:30.947Z,26.9
2022-10-09T12:47:33.527Z,27
2022-10-09T12:48:35.759Z,26.6
2022-10-09T12:49:38.237Z,27
2022-10-09T12:50:40.464Z,26.9
2022-10-09T12:51:42.387Z,26.8
2022-10-09T12:52:44.293Z,26.9
2022-10-09T12:53:47.345Z,27
2022-10-09T12:54:49.544Z,26.8
2022-10-09T12:55:51.752Z,26.8
2022-10-09T12:56:54.240Z,26.7
2022-10-09T12:57:56.424Z,27
2022-10-09T12:58:58.908Z,26.7
2022-10-09T13:00:00.863Z,26.7
2022-10-09T13:01:03.247Z,26.9
2022-10-09T13:02:06.434Z,26.8
2022-10-09T13:03:09.915Z,27
2022-10-09T13:04:12.141Z,26.9
2022-10-09T13:05:14.324Z,27
2022-10-09T13:06:16.799Z,26.9
2022-10-09T13:07:19.275Z,26.8
2022-10-09T13:08:21.476Z,27
2022-10-09T13:09:23.658Z,26.9
2022-10-09T13:10:25.855Z,26.8
2022-10-09T13:11:28.343Z,26.6
2022-10-09T13:12:30.566Z,26.9
2022-10-09T13:13:32.488Z,26.7
2022-10-09T13:14:34.395Z,26.7
2022-10-09T13:15:36.603Z,27.1
2022-10-09T13:16:38.875Z,27
2022-10-09T13:17:41.724Z,26.9
2022-10-09T13:18:44.269Z,26.8
2022-10-09T13:19:45.923Z,26.8
2022-10-09T13:20:48.406Z,26.9
2022-10-09T13:21:50.890Z,26.8
2022-10-09T13:22:53.359Z,26.8
2022-10-09T13:23:55.561Z,26.8
2022-10-09T13:24:57.767Z,27.1
2022-10-09T13:26:03.406Z,26.9
2022-10-09T13:27:05.285Z,26.7
2022-10-09T13:28:06.973Z,26.7
2022-10-09T13:29:09.763Z,26.8
2022-10-09T13:30:12.259Z,27.1
2022-10-09T13:31:14.540Z,26.7
2022-10-09T13:32:17.117Z,26.8
2022-10-09T13:33:19.597Z,26.8
2022-10-09T13:34:22.159Z,26.7
2022-10-09T13:35:24.394Z,26.6
2022-10-09T13:36:26.601Z,26.9
2022-10-09T13:37:28.514Z,26.9
2022-10-09T13:38:34.707Z,27
2022-10-09T13:39:35.710Z,26.6
2022-10-09T13:40:38.192Z,26.7
2022-10-09T13:41:40.416Z,26.9
2022-10-09T13:42:42.336Z,26.8
2022-10-09T13:43:44.271Z,26.9
2022-10-09T13:44:46.750Z,26.9
2022-10-09T13:45:49.013Z,27.1
2022-10-09T13:46:51.589Z,26.9
2022-10-09T13:47:54.079Z,27
2022-10-09T13:48:56.284Z,26.7
2022-10-09T13:49:58.845Z,26.9
2022-10-09T13:51:01.347Z,26.9
2022-10-09T13:52:03.818Z,26.9
2022-10-09T13:53:06.298Z,26.9
2022-10-09T13:54:08.799Z,26.7
2022-10-09T13:55:11.004Z,27
2022-10-09T13:56:13.484Z,26.9
2022-10-09T13:57:15.983Z,27.1
2022-10-09T13:58:18.436Z,26.9
2022-10-09T13:59:21.179Z,27
2022-10-09T14:00:23.374Z,26.9
2022-10-09T14:01:25.623Z,27
2022-10-09T14:02:28.926Z,26.9